sensor_id;sensor_type;location;lat;lon;timestamp;pressure;altitude;pressure_sealevel;temperature;humidity
17615;BME280;8926;49.720;6.576;2023-07-13T00:02:15;99725.13;;;19.99;50.82
17615;BME280;8926;49.720;6.576;2023-07-13T00:04:43;99734.06;;;19.98;50.92
17615;BME280;8926;49.720;6.576;2023-07-13T00:07:09;99728.91;;;19.96;51.64
17615;BME280;8926;49.720;6.576;2023-07-13T00:09:35;99724.06;;;19.92;51.79
17615;BME280;8926;49.720;6.576;2023-07-13T00:12:00;99726.31;;;19.87;52.05
17615;BME280;8926;49.720;6.576;2023-07-13T00:14:28;99725.63;;;19.85;52.09
17615;BME280;8926;49.720;6.576;2023-07-13T00:16:54;99726.88;;;19.81;52.69
17615;BME280;8926;49.720;6.576;2023-07-13T00:19:19;99729.53;;;19.81;51.99
17615;BME280;8926;49.720;6.576;2023-07-13T00:21:45;99723.53;;;19.79;52.66
17615;BME280;8926;49.720;6.576;2023-07-13T00:24:12;99718.53;;;19.76;52.71
17615;BME280;8926;49.720;6.576;2023-07-13T00:26:38;99710.97;;;19.81;52.11
17615;BME280;8926;49.720;6.576;2023-07-13T00:29:04;99709.31;;;19.80;52.58
17615;BME280;8926;49.720;6.576;2023-07-13T00:31:33;99710.97;;;19.81;53.08
17615;BME280;8926;49.720;6.576;2023-07-13T00:33:58;99709.31;;;19.80;52.39
17615;BME280;8926;49.720;6.576;2023-07-13T00:36:25;99705.88;;;19.70;52.79
17615;BME280;8926;49.720;6.576;2023-07-13T00:38:51;99703.50;;;19.67;52.55
17615;BME280;8926;49.720;6.576;2023-07-13T00:41:16;99711.91;;;19.62;53.65
17615;BME280;8926;49.720;6.576;2023-07-13T00:43:41;99709.94;;;19.64;53.87
17615;BME280;8926;49.720;6.576;2023-07-13T00:46:28;99707.72;;;19.59;54.51
17615;BME280;8926;49.720;6.576;2023-07-13T00:48:57;99711.34;;;19.58;54.56
17615;BME280;8926;49.720;6.576;2023-07-13T00:51:28;99710.38;;;19.59;54.10
17615;BME280;8926;49.720;6.576;2023-07-13T00:53:57;99709.94;;;19.64;53.87
17615;BME280;8926;49.720;6.576;2023-07-13T00:56:23;99708.53;;;19.70;53.82
17615;BME280;8926;49.720;6.576;2023-07-13T00:58:49;99717.47;;;19.69;54.47
17615;BME280;8926;49.720;6.576;2023-07-13T01:01:15;99706.06;;;19.58;54.83
17615;BME280;8926;49.720;6.576;2023-07-13T01:03:40;99718.66;;;19.37;55.89
17615;BME280;8926;49.720;6.576;2023-07-13T01:06:07;99715.88;;;19.29;55.93
17615;BME280;8926;49.720;6.576;2023-07-13T01:08:33;99714.88;;;19.30;56.00
17615;BME280;8926;49.720;6.576;2023-07-13T01:10:58;99713.06;;;19.40;55.64
17615;BME280;8926;49.720;6.576;2023-07-13T01:13:24;99706.88;;;19.49;55.37
17615;BME280;8926;49.720;6.576;2023-07-13T01:15:51;99718.50;;;19.48;54.70
17615;BME280;8926;49.720;6.576;2023-07-13T01:18:20;99721.69;;;19.52;54.66
17615;BME280;8926;49.720;6.576;2023-07-13T01:20:53;99725.00;;;19.63;53.95
17615;BME280;8926;49.720;6.576;2023-07-13T01:23:19;99722.25;;;19.55;54.78
17615;BME280;8926;49.720;6.576;2023-07-13T01:25:45;99718.91;;;19.53;56.10
17615;BME280;8926;49.720;6.576;2023-07-13T01:28:10;99734.50;;;19.56;56.13
17615;BME280;8926;49.720;6.576;2023-07-13T01:30:37;99741.19;;;19.60;55.61
17615;BME280;8926;49.720;6.576;2023-07-13T01:33:05;99732.28;;;19.61;54.56
17615;BME280;8926;49.720;6.576;2023-07-13T01:35:32;99734.22;;;19.59;54.69
17615;BME280;8926;49.720;6.576;2023-07-13T01:37:57;99737.84;;;19.58;54.52
17615;BME280;8926;49.720;6.576;2023-07-13T01:40:23;99731.44;;;19.61;54.92
17615;BME280;8926;49.720;6.576;2023-07-13T01:42:48;99733.09;;;19.62;55.10
17615;BME280;8926;49.720;6.576;2023-07-13T01:45:13;99738.13;;;19.65;55.26
17615;BME280;8926;49.720;6.576;2023-07-13T01:47:39;99737.00;;;19.68;54.34
17615;BME280;8926;49.720;6.576;2023-07-13T01:50:05;99734.06;;;19.71;54.42
17615;BME280;8926;49.720;6.576;2023-07-13T01:52:30;99740.63;;;19.67;54.13
17615;BME280;8926;49.720;6.576;2023-07-13T01:54:56;99740.63;;;19.67;54.78
17615;BME280;8926;49.720;6.576;2023-07-13T01:57:21;99740.34;;;19.70;54.86
17615;BME280;8926;49.720;6.576;2023-07-13T01:59:46;99744.88;;;19.77;54.16
17615;BME280;8926;49.720;6.576;2023-07-13T02:02:11;99747.31;;;19.71;54.44
17615;BME280;8926;49.720;6.576;2023-07-13T02:04:37;99744.25;;;19.65;53.63
17615;BME280;8926;49.720;6.576;2023-07-13T02:07:02;99752.09;;;19.48;54.80
17615;BME280;8926;49.720;6.576;2023-07-13T02:09:28;99748.19;;;19.42;54.86
17615;BME280;8926;49.720;6.576;2023-07-13T02:11:53;99753.50;;;19.42;55.15
17615;BME280;8926;49.720;6.576;2023-07-13T02:14:18;99752.94;;;19.48;55.29
17615;BME280;8926;49.720;6.576;2023-07-13T02:16:44;99750.69;;;19.53;55.03
17615;BME280;8926;49.720;6.576;2023-07-13T02:19:09;99754.31;;;19.52;55.06
17615;BME280;8926;49.720;6.576;2023-07-13T02:21:34;99759.34;;;19.55;54.49
17615;BME280;8926;49.720;6.576;2023-07-13T02:24:00;99760.88;;;19.48;54.90
17615;BME280;8926;49.720;6.576;2023-07-13T02:26:26;99760.19;;;19.46;54.65
17615;BME280;8926;49.720;6.576;2023-07-13T02:28:52;99760.75;;;19.40;55.28
17615;BME280;8926;49.720;6.576;2023-07-13T02:31:17;99764.66;;;19.36;56.02
17615;BME280;8926;49.720;6.576;2023-07-13T02:33:43;99761.59;;;19.31;56.69
17615;BME280;8926;49.720;6.576;2023-07-13T02:36:09;99758.25;;;19.29;57.36
17615;BME280;8926;49.720;6.576;2023-07-13T02:38:35;99753.66;;;19.31;56.43
17615;BME280;8926;49.720;6.576;2023-07-13T02:41:06;99761.59;;;19.31;55.88
17615;BME280;8926;49.720;6.576;2023-07-13T02:43:32;99759.09;;;19.29;57.42
17615;BME280;8926;49.720;6.576;2023-07-13T02:45:59;99759.22;;;19.28;56.75
17615;BME280;8926;49.720;6.576;2023-07-13T02:48:29;99757.97;;;19.32;56.79
17615;BME280;8926;49.720;6.576;2023-07-13T02:50:54;99757.97;;;19.32;57.01
17615;BME280;8926;49.720;6.576;2023-07-13T02:53:20;99759.94;;;19.30;57.82
17615;BME280;8926;49.720;6.576;2023-07-13T02:55:45;99754.91;;;19.27;57.81
17615;BME280;8926;49.720;6.576;2023-07-13T02:58:12;99756.47;;;19.20;58.13
17615;BME280;8926;49.720;6.576;2023-07-13T03:00:42;99757.84;;;19.24;57.28
17615;BME280;8926;49.720;6.576;2023-07-13T03:03:08;99764.09;;;19.23;57.36
17615;BME280;8926;49.720;6.576;2023-07-13T03:05:33;99759.13;;;19.20;57.26
17615;BME280;8926;49.720;6.576;2023-07-13T03:07:58;99768.75;;;19.21;58.06
17615;BME280;8926;49.720;6.576;2023-07-13T03:10:23;99762.47;;;19.22;58.40
17615;BME280;8926;49.720;6.576;2023-07-13T03:12:49;99769.41;;;19.23;58.55
17615;BME280;8926;49.720;6.576;2023-07-13T03:15:14;99768.59;;;19.22;58.87
17615;BME280;8926;49.720;6.576;2023-07-13T03:17:39;99764.41;;;19.20;58.56
17615;BME280;8926;49.720;6.576;2023-07-13T03:20:05;99771.66;;;19.18;58.77
17615;BME280;8926;49.720;6.576;2023-07-13T03:22:32;99776.00;;;19.19;58.10
17615;BME280;8926;49.720;6.576;2023-07-13T03:24:57;99781.44;;;19.17;57.70
17615;BME280;8926;49.720;6.576;2023-07-13T03:27:22;99779.91;;;19.15;57.38
17615;BME280;8926;49.720;6.576;2023-07-13T03:29:48;99780.88;;;19.14;56.97
17615;BME280;8926;49.720;6.576;2023-07-13T03:32:13;99784.50;;;19.13;56.88
17615;BME280;8926;49.720;6.576;2023-07-13T03:34:38;99783.38;;;19.06;56.77
17615;BME280;8926;49.720;6.576;2023-07-13T03:37:04;99782.69;;;19.04;56.86
17615;BME280;8926;49.720;6.576;2023-07-13T03:39:29;99789.22;;;18.99;56.77
17615;BME280;8926;49.720;6.576;2023-07-13T03:41:55;99791.34;;;18.96;57.97
17615;BME280;8926;49.720;6.576;2023-07-13T03:44:20;99797.03;;;18.91;57.71
17615;BME280;8926;49.720;6.576;2023-07-13T03:46:46;99789.38;;;18.88;58.01
17615;BME280;8926;49.720;6.576;2023-07-13T03:49:11;99794.00;;;18.96;57.14
17615;BME280;8926;49.720;6.576;2023-07-13T03:51:37;99799.25;;;19.06;56.99
17615;BME280;8926;49.720;6.576;2023-07-13T03:54:03;99800.22;;;19.05;57.53
17615;BME280;8926;49.720;6.576;2023-07-13T03:56:28;99804.69;;;19.04;57.82
17615;BME280;8926;49.720;6.576;2023-07-13T03:58:55;99812.78;;;19.03;57.69
17615;BME280;8926;49.720;6.576;2023-07-13T04:01:22;99810.41;;;18.99;57.27
17615;BME280;8926;49.720;6.576;2023-07-13T04:03:48;99811.53;;;18.87;58.97
17615;BME280;8926;49.720;6.576;2023-07-13T04:06:27;99812.78;;;18.83;59.05
17615;BME280;8926;49.720;6.576;2023-07-13T04:08:56;99815.41;;;18.83;58.82
17615;BME280;8926;49.720;6.576;2023-07-13T04:11:24;99814.03;;;18.79;59.31
17615;BME280;8926;49.720;6.576;2023-07-13T04:13:50;99816.00;;;18.87;59.03
17615;BME280;8926;49.720;6.576;2023-07-13T04:16:17;99809.59;;;18.89;58.61
17615;BME280;8926;49.720;6.576;2023-07-13T04:18:44;99809.31;;;18.92;58.60
17615;BME280;8926;49.720;6.576;2023-07-13T04:21:10;99812.06;;;19.01;58.85
17615;BME280;8926;49.720;6.576;2023-07-13T04:23:36;99823.94;;;19.16;58.63
17615;BME280;8926;49.720;6.576;2023-07-13T04:26:02;99817.66;;;19.36;57.61
17615;BME280;8926;49.720;6.576;2023-07-13T04:28:27;99820.16;;;19.57;56.89
17615;BME280;8926;49.720;6.576;2023-07-13T04:30:53;99818.19;;;19.69;56.02
17615;BME280;8926;49.720;6.576;2023-07-13T04:33:19;99819.97;;;19.78;56.09
17615;BME280;8926;49.720;6.576;2023-07-13T04:35:49;99814.09;;;19.84;55.88
17615;BME280;8926;49.720;6.576;2023-07-13T04:38:14;99823.72;;;19.85;56.21
17615;BME280;8926;49.720;6.576;2023-07-13T04:40:42;99835.13;;;19.95;55.73
17615;BME280;8926;49.720;6.576;2023-07-13T04:43:08;99827.81;;;20.07;55.92
17615;BME280;8926;49.720;6.576;2023-07-13T04:45:34;99829.50;;;20.08;56.22
17615;BME280;8926;49.720;6.576;2023-07-13T04:48:00;99829.31;;;19.82;56.95
17615;BME280;8926;49.720;6.576;2023-07-13T04:50:25;99824.28;;;19.79;56.48
17615;BME280;8926;49.720;6.576;2023-07-13T04:52:50;99831.25;;;19.80;57.85
17615;BME280;8926;49.720;6.576;2023-07-13T04:55:16;99839.06;;;19.91;57.42
17615;BME280;8926;49.720;6.576;2023-07-13T04:57:42;99838.56;;;20.05;56.85
17615;BME280;8926;49.720;6.576;2023-07-13T05:00:08;99831.25;;;20.26;56.63
17615;BME280;8926;49.720;6.576;2023-07-13T05:02:34;99833.41;;;20.50;55.83
17615;BME280;8926;49.720;6.576;2023-07-13T05:05:00;99834.69;;;20.64;54.91
17615;BME280;8926;49.720;6.576;2023-07-13T05:07:25;99844.03;;;20.68;55.47
17615;BME280;8926;49.720;6.576;2023-07-13T05:09:51;99834.06;;;20.97;54.48
17615;BME280;8926;49.720;6.576;2023-07-13T05:12:16;99833.38;;;21.31;53.59
17615;BME280;8926;49.720;6.576;2023-07-13T05:14:42;99833.25;;;21.58;52.88
17615;BME280;8926;49.720;6.576;2023-07-13T05:17:07;99827.38;;;21.73;52.48
17615;BME280;8926;49.720;6.576;2023-07-13T05:19:33;99836.06;;;21.83;52.10
17615;BME280;8926;49.720;6.576;2023-07-13T05:21:58;99831.28;;;21.86;51.72
17615;BME280;8926;49.720;6.576;2023-07-13T05:24:23;99827.94;;;21.84;52.17
17615;BME280;8926;49.720;6.576;2023-07-13T05:26:49;99834.53;;;21.98;51.68
17615;BME280;8926;49.720;6.576;2023-07-13T05:29:14;99831.94;;;22.06;51.26
17615;BME280;8926;49.720;6.576;2023-07-13T05:31:39;99837.59;;;22.11;51.32
17615;BME280;8926;49.720;6.576;2023-07-13T05:34:05;99834.56;;;22.40;50.74
17615;BME280;8926;49.720;6.576;2023-07-13T05:36:31;99832.31;;;22.61;49.80
17615;BME280;8926;49.720;6.576;2023-07-13T05:38:56;99828.81;;;22.61;48.09
17615;BME280;8926;49.720;6.576;2023-07-13T05:41:22;99828.53;;;22.72;48.82
17615;BME280;8926;49.720;6.576;2023-07-13T05:43:47;99830.94;;;22.99;48.84
17615;BME280;8926;49.720;6.576;2023-07-13T05:46:12;99831.31;;;23.29;47.11
17615;BME280;8926;49.720;6.576;2023-07-13T05:48:38;99832.16;;;23.62;46.92
17615;BME280;8926;49.720;6.576;2023-07-13T05:51:03;99827.63;;;23.79;46.83
17615;BME280;8926;49.720;6.576;2023-07-13T05:53:28;99832.28;;;23.68;47.21
17615;BME280;8926;49.720;6.576;2023-07-13T05:55:55;99820.97;;;23.66;46.28
17615;BME280;8926;49.720;6.576;2023-07-13T05:58:20;99827.47;;;23.48;46.25
17615;BME280;8926;49.720;6.576;2023-07-13T06:00:47;99828.97;;;23.50;46.50
17615;BME280;8926;49.720;6.576;2023-07-13T06:03:13;99822.31;;;23.62;46.50
17615;BME280;8926;49.720;6.576;2023-07-13T06:05:39;99827.44;;;23.80;46.09
17615;BME280;8926;49.720;6.576;2023-07-13T06:08:06;99821.56;;;24.01;45.93
17615;BME280;8926;49.720;6.576;2023-07-13T06:10:35;99832.56;;;23.98;45.49
17615;BME280;8926;49.720;6.576;2023-07-13T06:13:01;99831.06;;;24.12;45.62
17615;BME280;8926;49.720;6.576;2023-07-13T06:15:28;99837.66;;;24.24;45.46
17615;BME280;8926;49.720;6.576;2023-07-13T06:17:53;99839.09;;;24.51;44.56
17615;BME280;8926;49.720;6.576;2023-07-13T06:20:18;99843.41;;;24.60;44.05
17615;BME280;8926;49.720;6.576;2023-07-13T06:22:44;99837.72;;;24.63;44.69
17615;BME280;8926;49.720;6.576;2023-07-13T06:25:09;99834.38;;;24.61;43.95
17615;BME280;8926;49.720;6.576;2023-07-13T06:27:34;99839.06;;;24.59;44.60
17615;BME280;8926;49.720;6.576;2023-07-13T06:30:00;99830.34;;;24.65;43.42
17615;BME280;8926;49.720;6.576;2023-07-13T06:32:25;99837.47;;;24.73;44.00
17615;BME280;8926;49.720;6.576;2023-07-13T06:34:51;99837.28;;;25.05;43.40
17615;BME280;8926;49.720;6.576;2023-07-13T06:37:17;99837.06;;;25.15;43.95
17615;BME280;8926;49.720;6.576;2023-07-13T06:39:42;99842.75;;;25.34;43.20
17615;BME280;8926;49.720;6.576;2023-07-13T06:42:08;99838.91;;;25.37;43.21
17615;BME280;8926;49.720;6.576;2023-07-13T06:44:33;99839.06;;;25.35;42.42
17615;BME280;8926;49.720;6.576;2023-07-13T06:46:58;99839.59;;;25.31;42.92
17615;BME280;8926;49.720;6.576;2023-07-13T06:49:24;99836.25;;;25.52;42.88
17615;BME280;8926;49.720;6.576;2023-07-13T06:51:49;99842.13;;;25.47;42.03
17615;BME280;8926;49.720;6.576;2023-07-13T06:54:14;99843.81;;;25.48;41.77
17615;BME280;8926;49.720;6.576;2023-07-13T06:56:40;99851.03;;;25.85;41.22
17615;BME280;8926;49.720;6.576;2023-07-13T06:59:05;99839.31;;;26.01;40.90
17615;BME280;8926;49.720;6.576;2023-07-13T07:01:30;99847.81;;;26.19;41.07
17615;BME280;8926;49.720;6.576;2023-07-13T07:03:56;99846.91;;;26.42;40.75
17615;BME280;8926;49.720;6.576;2023-07-13T07:06:22;99846.53;;;26.45;40.21
17615;BME280;8926;49.720;6.576;2023-07-13T07:08:51;99840.81;;;26.48;39.96
17615;BME280;8926;49.720;6.576;2023-07-13T07:11:20;99850.13;;;26.37;39.70
17615;BME280;8926;49.720;6.576;2023-07-13T07:13:47;99847.44;;;26.22;39.87
17615;BME280;8926;49.720;6.576;2023-07-13T07:16:12;99847.84;;;26.49;40.35
17615;BME280;8926;49.720;6.576;2023-07-13T07:18:37;99849.91;;;26.68;38.57
17615;BME280;8926;49.720;6.576;2023-07-13T07:21:03;99841.91;;;26.89;38.59
17615;BME280;8926;49.720;6.576;2023-07-13T07:23:28;99843.53;;;27.05;38.86
17615;BME280;8926;49.720;6.576;2023-07-13T07:25:53;99850.00;;;26.60;38.27
17615;BME280;8926;49.720;6.576;2023-07-13T07:28:19;99853.66;;;26.38;38.91
17615;BME280;8926;49.720;6.576;2023-07-13T07:30:45;99859.81;;;25.94;39.06
17615;BME280;8926;49.720;6.576;2023-07-13T07:33:11;99852.94;;;25.77;39.97
17615;BME280;8926;49.720;6.576;2023-07-13T07:35:36;99850.38;;;25.68;39.87
17615;BME280;8926;49.720;6.576;2023-07-13T07:38:02;99866.81;;;25.57;39.44
17615;BME280;8926;49.720;6.576;2023-07-13T07:40:27;99861.06;;;25.23;39.83
17615;BME280;8926;49.720;6.576;2023-07-13T07:42:53;99859.69;;;25.27;40.35
17615;BME280;8926;49.720;6.576;2023-07-13T07:45:19;99862.31;;;25.35;40.54
17615;BME280;8926;49.720;6.576;2023-07-13T07:47:44;99856.31;;;25.93;40.08
17615;BME280;8926;49.720;6.576;2023-07-13T07:50:10;99865.34;;;26.07;39.16
17615;BME280;8926;49.720;6.576;2023-07-13T07:52:35;99856.19;;;25.87;38.69
17615;BME280;8926;49.720;6.576;2023-07-13T07:55:01;99861.28;;;26.11;39.02
17615;BME280;8926;49.720;6.576;2023-07-13T07:57:26;99858.53;;;26.19;38.63
17615;BME280;8926;49.720;6.576;2023-07-13T07:59:51;99864.09;;;26.32;38.85
17615;BME280;8926;49.720;6.576;2023-07-13T08:02:17;99861.13;;;26.13;37.96
17615;BME280;8926;49.720;6.576;2023-07-13T08:04:42;99861.69;;;26.38;38.55
17615;BME280;8926;49.720;6.576;2023-07-13T08:07:08;99853.72;;;26.59;37.85
17615;BME280;8926;49.720;6.576;2023-07-13T08:09:34;99856.66;;;26.64;37.92
17615;BME280;8926;49.720;6.576;2023-07-13T08:11:59;99859.75;;;26.82;38.15
17615;BME280;8926;49.720;6.576;2023-07-13T08:14:25;99850.25;;;27.16;37.57
17615;BME280;8926;49.720;6.576;2023-07-13T08:16:50;99848.06;;;27.47;37.07
17615;BME280;8926;49.720;6.576;2023-07-13T08:19:15;99844.88;;;27.37;36.49
17615;BME280;8926;49.720;6.576;2023-07-13T08:21:41;99848.06;;;27.04;36.94
17615;BME280;8926;49.720;6.576;2023-07-13T08:24:08;99849.91;;;26.68;36.98
17615;BME280;8926;49.720;6.576;2023-07-13T08:26:33;99868.78;;;26.60;37.63
17615;BME280;8926;49.720;6.576;2023-07-13T08:28:59;99845.88;;;26.93;37.21
17615;BME280;8926;49.720;6.576;2023-07-13T08:31:25;99845.88;;;26.93;36.72
17615;BME280;8926;49.720;6.576;2023-07-13T08:33:50;99850.56;;;26.70;36.41
17615;BME280;8926;49.720;6.576;2023-07-13T08:36:15;99846.31;;;26.61;36.95
17615;BME280;8926;49.720;6.576;2023-07-13T08:38:40;99847.25;;;26.53;36.71
17615;BME280;8926;49.720;6.576;2023-07-13T08:41:12;99846.41;;;26.67;36.67
17615;BME280;8926;49.720;6.576;2023-07-13T08:43:37;99841.19;;;26.81;36.17
17615;BME280;8926;49.720;6.576;2023-07-13T08:46:35;99850.25;;;26.80;35.98
17615;BME280;8926;49.720;6.576;2023-07-13T08:49:18;99843.53;;;26.69;35.86
17615;BME280;8926;49.720;6.576;2023-07-13T08:51:52;99838.50;;;26.95;35.90
17615;BME280;8926;49.720;6.576;2023-07-13T08:54:31;99842.25;;;27.44;34.94
17615;BME280;8926;49.720;6.576;2023-07-13T08:57:01;99841.69;;;27.27;35.12
17615;BME280;8926;49.720;6.576;2023-07-13T08:59:30;99844.31;;;26.99;35.23
17615;BME280;8926;49.720;6.576;2023-07-13T09:04:47;99840.03;;;26.54;34.86
17615;BME280;8926;49.720;6.576;2023-07-13T09:07:47;99842.28;;;26.35;35.16
17615;BME280;8926;49.720;6.576;2023-07-13T09:10:36;99841.63;;;26.33;34.96
17615;BME280;8926;49.720;6.576;2023-07-13T09:15:51;99837.25;;;26.62;34.52
17615;BME280;8926;49.720;6.576;2023-07-13T09:20:54;99839.59;;;27.22;34.03
17615;BME280;8926;49.720;6.576;2023-07-13T09:23:23;99831.06;;;27.40;34.18
17615;BME280;8926;49.720;6.576;2023-07-13T09:25:53;99828.97;;;27.85;33.90
17615;BME280;8926;49.720;6.576;2023-07-13T09:28:33;99828.00;;;28.33;32.57
17615;BME280;8926;49.720;6.576;2023-07-13T09:31:07;99835.25;;;28.33;32.36
17615;BME280;8926;49.720;6.576;2023-07-13T09:33:38;99827.72;;;28.63;32.38
17615;BME280;8926;49.720;6.576;2023-07-13T09:36:21;99827.06;;;28.48;32.49
17615;BME280;8926;49.720;6.576;2023-07-13T09:39:02;99822.84;;;28.25;32.18
17615;BME280;8926;49.720;6.576;2023-07-13T09:44:18;99826.75;;;27.95;33.09
17615;BME280;8926;49.720;6.576;2023-07-13T09:46:54;99819.47;;;27.89;32.79
17615;BME280;8926;49.720;6.576;2023-07-13T09:49:26;99827.25;;;28.05;32.70
17615;BME280;8926;49.720;6.576;2023-07-13T09:52:04;99831.00;;;28.17;32.73
17615;BME280;8926;49.720;6.576;2023-07-13T09:54:33;99832.44;;;28.48;32.93
17615;BME280;8926;49.720;6.576;2023-07-13T09:57:00;99823.75;;;28.11;32.65
17615;BME280;8926;49.720;6.576;2023-07-13T09:59:32;99832.03;;;27.54;33.74
17615;BME280;8926;49.720;6.576;2023-07-13T10:01:57;99832.41;;;27.51;33.94
17615;BME280;8926;49.720;6.576;2023-07-13T10:04:30;99831.59;;;27.50;32.73
17615;BME280;8926;49.720;6.576;2023-07-13T10:07:07;99831.63;;;27.85;32.87
17615;BME280;8926;49.720;6.576;2023-07-13T10:09:33;99829.94;;;28.05;33.15
17615;BME280;8926;49.720;6.576;2023-07-13T10:11:58;99818.81;;;28.56;32.27
17615;BME280;8926;49.720;6.576;2023-07-13T10:14:24;99829.69;;;28.34;32.14
17615;BME280;8926;49.720;6.576;2023-07-13T10:16:55;99849.34;;;28.07;32.66
17615;BME280;8926;49.720;6.576;2023-07-13T10:19:26;99835.38;;;28.18;32.51
17615;BME280;8926;49.720;6.576;2023-07-13T10:21:54;99833.00;;;28.36;31.73
17615;BME280;8926;49.720;6.576;2023-07-13T10:24:24;99830.72;;;28.81;31.75
17615;BME280;8926;49.720;6.576;2023-07-13T10:29:45;99828.97;;;28.67;31.99
17615;BME280;8926;49.720;6.576;2023-07-13T10:32:12;99831.94;;;28.79;32.04
17615;BME280;8926;49.720;6.576;2023-07-13T10:34:39;99834.22;;;28.27;32.33
17615;BME280;8926;49.720;6.576;2023-07-13T10:37:07;99831.41;;;28.14;32.87
17615;BME280;8926;49.720;6.576;2023-07-13T10:39:41;99839.66;;;28.06;32.24
17615;BME280;8926;49.720;6.576;2023-07-13T10:42:12;99838.03;;;27.84;32.89
17615;BME280;8926;49.720;6.576;2023-07-13T10:44:40;99840.91;;;27.82;32.60
17615;BME280;8926;49.720;6.576;2023-07-13T10:47:14;99841.94;;;27.53;32.44
17615;BME280;8926;49.720;6.576;2023-07-13T10:49:41;99855.03;;;26.84;33.14
17615;BME280;8926;49.720;6.576;2023-07-13T10:52:43;99845.66;;;27.10;33.03
17615;BME280;8926;49.720;6.576;2023-07-13T10:55:40;99841.66;;;27.69;32.16
17615;BME280;8926;49.720;6.576;2023-07-13T11:01:17;99846.66;;;27.73;32.64
17615;BME280;8926;49.720;6.576;2023-07-13T11:06:36;99852.59;;;27.47;33.06
17615;BME280;8926;49.720;6.576;2023-07-13T11:09:39;99844.28;;;27.91;32.79
17615;BME280;8926;49.720;6.576;2023-07-13T11:12:27;99846.63;;;28.28;31.82
17615;BME280;8926;49.720;6.576;2023-07-13T11:23:07;99851.72;;;27.89;32.48
17615;BME280;8926;49.720;6.576;2023-07-13T11:25:34;99859.56;;;27.90;32.06
17615;BME280;8926;49.720;6.576;2023-07-13T11:28:16;99853.13;;;27.85;32.35
17615;BME280;8926;49.720;6.576;2023-07-13T11:33:43;99840.25;;;28.43;31.57
17615;BME280;8926;49.720;6.576;2023-07-13T11:36:16;99846.19;;;28.25;32.02
17615;BME280;8926;49.720;6.576;2023-07-13T11:38:44;99848.44;;;27.93;31.89
17615;BME280;8926;49.720;6.576;2023-07-13T11:41:37;99855.97;;;27.55;32.05
17615;BME280;8926;49.720;6.576;2023-07-13T11:44:15;99856.31;;;27.46;32.78
17615;BME280;8926;49.720;6.576;2023-07-13T11:46:47;99859.47;;;27.28;32.75
17615;BME280;8926;49.720;6.576;2023-07-13T11:49:16;99865.31;;;26.95;33.06
17615;BME280;8926;49.720;6.576;2023-07-13T11:51:42;99858.94;;;26.96;33.38
17615;BME280;8926;49.720;6.576;2023-07-13T11:54:23;99852.34;;;26.84;33.50
17615;BME280;8926;49.720;6.576;2023-07-13T11:56:49;99857.34;;;26.87;33.78
17615;BME280;8926;49.720;6.576;2023-07-13T11:59:15;99865.94;;;26.47;34.05
17615;BME280;8926;49.720;6.576;2023-07-13T12:01:46;99873.47;;;25.99;34.21
17615;BME280;8926;49.720;6.576;2023-07-13T12:04:22;99866.63;;;25.82;34.80
17615;BME280;8926;49.720;6.576;2023-07-13T12:06:55;99869.28;;;25.82;34.75
17615;BME280;8926;49.720;6.576;2023-07-13T12:09:21;99859.06;;;26.00;34.69
17615;BME280;8926;49.720;6.576;2023-07-13T12:11:50;99865.44;;;26.28;34.59
17615;BME280;8926;49.720;6.576;2023-07-13T12:14:17;99875.88;;;26.53;34.57
17615;BME280;8926;49.720;6.576;2023-07-13T12:16:46;99869.59;;;26.75;34.20
17615;BME280;8926;49.720;6.576;2023-07-13T12:19:23;99874.97;;;26.75;33.39
17615;BME280;8926;49.720;6.576;2023-07-13T12:21:52;99874.13;;;26.60;33.73
17615;BME280;8926;49.720;6.576;2023-07-13T12:24:19;99877.75;;;26.38;33.79
17615;BME280;8926;49.720;6.576;2023-07-13T12:27:32;99884.56;;;26.25;34.25
17615;BME280;8926;49.720;6.576;2023-07-13T12:29:39;99879.03;;;26.12;34.45
17615;BME280;8926;49.720;6.576;2023-07-13T12:32:08;99875.34;;;26.13;34.14
17615;BME280;8926;49.720;6.576;2023-07-13T12:34:52;99869.78;;;26.29;34.35
17615;BME280;8926;49.720;6.576;2023-07-13T12:37:18;99872.78;;;26.34;34.27
17615;BME280;8926;49.720;6.576;2023-07-13T12:39:47;99862.41;;;26.61;34.33
17615;BME280;8926;49.720;6.576;2023-07-13T12:42:25;99857.13;;;26.67;34.41
17615;BME280;8926;49.720;6.576;2023-07-13T12:44:56;99875.38;;;26.43;34.47
17615;BME280;8926;49.720;6.576;2023-07-13T12:47:22;99867.41;;;26.20;35.05
17615;BME280;8926;49.720;6.576;2023-07-13T12:49:50;99871.81;;;26.27;35.20
17615;BME280;8926;49.720;6.576;2023-07-13T12:52:30;99875.25;;;26.51;35.25
17615;BME280;8926;49.720;6.576;2023-07-13T12:54:58;99878.09;;;26.64;34.83
17615;BME280;8926;49.720;6.576;2023-07-13T12:57:24;99870.72;;;26.66;34.55
17615;BME280;8926;49.720;6.576;2023-07-13T12:59:54;99877.72;;;26.67;34.62
17615;BME280;8926;49.720;6.576;2023-07-13T13:02:30;99880.22;;;26.68;34.82
17615;BME280;8926;49.720;6.576;2023-07-13T13:04:58;99882.91;;;26.54;34.84
17615;BME280;8926;49.720;6.576;2023-07-13T13:07:24;99879.16;;;26.48;34.84
17615;BME280;8926;49.720;6.576;2023-07-13T13:09:50;99885.72;;;26.46;35.03
17615;BME280;8926;49.720;6.576;2023-07-13T13:12:15;99883.97;;;26.38;34.23
17615;BME280;8926;49.720;6.576;2023-07-13T13:14:42;99887.56;;;26.30;34.82
17615;BME280;8926;49.720;6.576;2023-07-13T13:17:20;99887.22;;;26.25;33.39
17615;BME280;8926;49.720;6.576;2023-07-13T13:19:46;99887.63;;;26.22;34.12
17615;BME280;8926;49.720;6.576;2023-07-13T13:22:12;99892.69;;;26.17;34.12
17615;BME280;8926;49.720;6.576;2023-07-13T13:24:38;99891.75;;;26.10;34.26
17615;BME280;8926;49.720;6.576;2023-07-13T13:27:04;99892.19;;;25.99;34.06
17615;BME280;8926;49.720;6.576;2023-07-13T13:29:34;99892.59;;;25.96;34.57
17615;BME280;8926;49.720;6.576;2023-07-13T13:32:00;99888.91;;;25.97;34.82
17615;BME280;8926;49.720;6.576;2023-07-13T13:34:26;99890.63;;;25.90;34.38
17615;BME280;8926;49.720;6.576;2023-07-13T13:36:52;99895.41;;;25.80;34.97
17615;BME280;8926;49.720;6.576;2023-07-13T13:39:24;99894.38;;;25.66;34.50
17615;BME280;8926;49.720;6.576;2023-07-13T13:41:51;99895.28;;;25.50;35.00
17615;BME280;8926;49.720;6.576;2023-07-13T13:44:17;99888.75;;;25.30;35.96
17615;BME280;8926;49.720;6.576;2023-07-13T13:46:48;99893.06;;;25.16;35.45